Time;durP1;ratioP1;P1;durP2;ratioP2;P2;SDS_P1;SDS_P2;PMS_P1;PMS_P2;Temp;Humidity;BMP_temperature;BMP_pressure;BME280_temperature;BME280_humidity;BME280_pressure;Samples;Min_cycle;Max_cycle;Signal;HPM_P1;HPM_P2
2022/12/08 00:01:23;;;;;;;1.40;1.30;;;;;;;-10.48;79.45;99765.75;4899997;29;20059;-85
2022/12/08 00:03:51;;;;;;;1.52;1.42;;;;;;;-10.51;79.39;99739.81;4880990;29;20085;-86
2022/12/08 00:09:22;;;;;;;1.40;1.30;;;;;;;-10.44;79.66;99729.03;4896556;29;20104;-84
2022/12/08 00:11:51;;;;;;;1.30;1.20;;;;;;;-10.43;79.55;99734.16;4878665;29;20548;-86
2022/12/08 00:14:18;;;;;;;1.40;1.30;;;;;;;-10.41;79.40;99728.84;4881196;29;20063;-86
2022/12/08 00:16:45;;;;;;;1.40;1.30;;;;;;;-10.43;79.47;99728.94;4897444;29;20116;-82
2022/12/08 00:19:12;;;;;;;1.40;1.30;;;;;;;-10.42;79.18;99732.41;4879544;29;20052;-84
2022/12/08 00:21:39;;;;;;;1.50;1.40;;;;;;;-10.35;79.12;99712.81;4879552;29;20104;-83
2022/12/08 00:24:07;;;;;;;1.50;1.40;;;;;;;-10.35;79.15;99728.47;4894421;29;20053;-81
2022/12/08 00:26:34;;;;;;;1.30;1.20;;;;;;;-10.32;79.10;99723.06;4895406;29;20140;-84
2022/12/08 00:29:01;;;;;;;1.45;1.35;;;;;;;-10.37;79.00;99723.34;4848350;29;20074;-84
2022/12/08 00:31:28;;;;;;;1.10;1.10;;;;;;;-10.38;79.36;99720.81;4879750;29;20097;-85
2022/12/08 00:33:55;;;;;;;1.40;1.30;;;;;;;-10.34;79.14;99730.97;4890681;29;20064;-85
2022/12/08 00:36:22;;;;;;;1.30;1.20;;;;;;;-10.35;79.15;99718.88;4896387;29;20052;-85
2022/12/08 00:38:49;;;;;;;1.60;1.50;;;;;;;-10.34;79.20;99725.75;4895749;29;20060;-84
2022/12/08 00:42:10;;;;;;;1.27;1.20;;;;;;;-10.28;79.15;99712.34;4892925;29;20091;-84
2022/12/08 00:44:07;;;;;;;1.50;1.40;;;;;;;-10.26;78.81;99720.03;4893591;29;20063;-83
2022/12/08 00:46:34;;;;;;;1.50;1.40;;;;;;;-10.25;78.69;99713.91;4896571;29;20552;-87
2022/12/08 00:49:02;;;;;;;1.30;1.20;;;;;;;-10.24;78.74;99702.50;4898169;29;20068;-87
2022/12/08 00:51:29;;;;;;;1.50;1.40;;;;;;;-10.25;78.59;99703.47;4898552;29;20164;-86
2022/12/08 00:53:56;;;;;;;1.42;1.33;;;;;;;-10.30;78.82;99689.88;4898194;29;20057;-86
2022/12/08 00:56:24;;;;;;;1.40;1.30;;;;;;;-10.29;78.54;99731.53;4866962;29;20052;-86
2022/12/08 00:58:51;;;;;;;1.40;1.30;;;;;;;-10.34;78.55;99717.09;4897973;29;20060;-86
2022/12/08 01:01:18;;;;;;;1.40;1.30;;;;;;;-10.28;78.74;99730.63;4881193;29;20056;-87
2022/12/08 01:03:45;;;;;;;1.35;1.25;;;;;;;-10.30;78.80;99744.69;4900279;29;20049;-87
2022/12/08 01:06:13;;;;;;;1.40;1.30;;;;;;;-10.27;78.71;99737.47;4880606;29;20060;-86
2022/12/08 01:08:41;;;;;;;1.33;1.23;;;;;;;-10.22;78.71;99716.31;4878543;29;20053;-87
2022/12/08 01:11:13;;;;;;;1.38;1.27;;;;;;;-10.21;78.60;99714.53;4861956;29;20112;-87
2022/12/08 01:13:40;;;;;;;1.40;1.30;;;;;;;-10.20;78.59;99726.63;4879091;29;20088;-87
2022/12/08 01:16:08;;;;;;;1.52;1.42;;;;;;;-10.25;78.58;99730.41;4878725;29;20053;-87
2022/12/08 01:18:36;;;;;;;1.25;1.17;;;;;;;-10.27;78.57;99742.69;4878691;29;20140;-87
2022/12/08 01:21:06;;;;;;;1.27;1.20;;;;;;;-10.28;78.26;99709.75;4880213;29;20109;-86
2022/12/08 01:23:34;;;;;;;1.50;1.40;;;;;;;-10.31;78.37;99736.00;4862231;29;20060;-86
2022/12/08 01:26:05;;;;;;;1.50;1.40;;;;;;;-10.30;78.70;99739.47;4878672;29;20057;-87
2022/12/08 01:28:33;;;;;;;1.60;1.50;;;;;;;-10.32;78.69;99717.84;4879366;29;20080;-86
2022/12/08 01:31:00;;;;;;;1.58;1.48;;;;;;;-10.31;78.48;99719.50;4864879;29;20049;-87
2022/12/08 01:33:28;;;;;;;1.42;1.33;;;;;;;-10.32;78.41;99689.13;4881567;29;20432;-87
2022/12/08 01:35:55;;;;;;;1.50;1.40;;;;;;;-10.33;78.67;99716.16;4881117;29;20059;-86
2022/12/08 01:38:22;;;;;;;1.40;1.30;;;;;;;-10.34;78.69;99698.81;4881249;29;20061;-86
2022/12/08 01:40:49;;;;;;;1.30;1.20;;;;;;;-10.31;78.65;99709.06;4864483;29;20117;-86
2022/12/08 01:43:18;;;;;;;1.35;1.25;;;;;;;-10.31;78.50;99725.56;4865310;29;20155;-86
2022/12/08 01:45:46;;;;;;;1.60;1.50;;;;;;;-10.32;78.25;99710.03;4865818;29;20428;-87
2022/12/08 01:48:23;;;;;;;1.60;1.50;;;;;;;-10.34;78.47;99711.88;4866524;29;20060;-87
2022/12/08 01:50:50;;;;;;;1.50;1.40;;;;;;;-10.37;78.35;99727.72;4904231;29;20052;-86
2022/12/08 01:53:21;;;;;;;1.65;1.55;;;;;;;-10.38;78.53;99707.78;4902586;29;20052;-85
2022/12/08 01:56:08;;;;;;;1.42;1.33;;;;;;;-10.36;78.47;99717.19;4865616;29;20552;-85
2022/12/08 01:58:39;;;;;;;1.58;1.48;;;;;;;-10.36;78.69;99721.56;4865463;29;20079;-86
2022/12/08 02:01:06;;;;;;;1.40;1.30;;;;;;;-10.36;78.60;99725.00;4865419;29;20065;-86
2022/12/08 02:03:40;;;;;;;1.40;1.30;;;;;;;-10.35;78.39;99715.44;4882992;29;20092;-86
2022/12/08 02:06:08;;;;;;;1.60;1.50;;;;;;;-10.35;78.40;99710.22;4881923;29;20148;-86
2022/12/08 02:08:35;;;;;;;1.33;1.23;;;;;;;-10.34;78.43;99704.88;4880750;29;20068;-86
2022/12/08 02:11:04;;;;;;;1.45;1.35;;;;;;;-10.30;78.56;99693.31;4868140;29;20059;-86
2022/12/08 02:13:31;;;;;;;1.23;1.20;;;;;;;-10.28;78.38;99714.09;4867784;29;20052;-86
2022/12/08 02:16:23;;;;;;;1.30;1.20;;;;;;;-10.32;78.29;99689.13;4885203;29;20476;-87
2022/12/08 02:19:09;;;;;;;1.42;1.33;;;;;;;-10.34;78.47;99697.03;4900744;29;20419;-86
2022/12/08 02:22:03;;;;;;;1.70;1.60;;;;;;;-10.35;78.11;99686.72;4882014;29;20052;-86
2022/12/08 02:24:30;;;;;;;1.70;1.60;;;;;;;-10.31;78.25;99693.41;4906162;29;20059;-86
2022/12/08 02:27:30;;;;;;;1.30;1.20;;;;;;;-10.36;78.14;99666.75;4922115;29;20040;-86
2022/12/08 02:30:20;;;;;;;1.38;1.27;;;;;;;-10.38;78.01;99705.16;4904866;29;20056;-87
2022/12/08 02:33:26;;;;;;;1.40;1.30;;;;;;;-10.38;77.96;99671.22;4901390;29;20535;-86
2022/12/08 02:36:06;;;;;;;1.30;1.20;;;;;;;-10.39;78.18;99685.22;4891002;29;20066;-86
2022/12/08 02:38:47;;;;;;;1.30;1.20;;;;;;;-10.42;78.29;99654.09;4883894;29;20097;-86
2022/12/08 02:41:36;;;;;;;1.40;1.30;;;;;;;-10.42;78.08;99670.59;4883351;29;20127;-86
2022/12/08 02:44:06;;;;;;;1.27;1.20;;;;;;;-10.41;78.20;99676.66;4901575;29;20068;-87
2022/12/08 02:46:38;;;;;;;1.40;1.30;;;;;;;-10.36;78.28;99656.31;4885993;29;20135;-87
2022/12/08 02:49:06;;;;;;;1.40;1.30;;;;;;;-10.43;78.36;99673.28;4883332;29;20056;-86
2022/12/08 02:51:34;;;;;;;1.40;1.30;;;;;;;-10.45;78.31;99654.31;4884311;29;20202;-87
2022/12/08 02:54:01;;;;;;;1.48;1.38;;;;;;;-10.43;78.52;99678.50;4901196;29;20085;-87
2022/12/08 02:57:04;;;;;;;1.40;1.30;;;;;;;-10.43;78.46;99673.28;4900737;29;20115;-87
2022/12/08 02:59:57;;;;;;;1.50;1.40;;;;;;;-10.45;78.48;99656.91;4901574;29;20062;-86
2022/12/08 03:03:23;;;;;;;1.30;1.20;;;;;;;-10.38;78.64;99673.84;4885809;29;20057;-86
2022/12/08 03:05:55;;;;;;;1.60;1.50;;;;;;;-10.41;78.26;99655.78;4840170;29;20437;-86
2022/12/08 03:08:47;;;;;;;1.42;1.33;;;;;;;-10.41;78.28;99656.59;4841661;29;20058;-86
2022/12/08 03:11:27;;;;;;;1.10;1.10;;;;;;;-10.36;78.44;99638.88;4826704;29;20110;-86
2022/12/08 03:13:58;;;;;;;1.50;1.40;;;;;;;-10.38;78.35;99660.78;4810805;29;20068;-86
2022/12/08 03:16:27;;;;;;;1.40;1.30;;;;;;;-10.38;78.32;99651.22;4840198;29;20620;-86
2022/12/08 03:18:59;;;;;;;1.40;1.30;;;;;;;-10.38;78.46;99640.78;4810663;29;20056;-86
2022/12/08 03:21:27;;;;;;;1.50;1.40;;;;;;;-10.40;78.44;99641.81;4831958;29;20054;-85
2022/12/08 03:23:55;;;;;;;1.50;1.40;;;;;;;-10.40;78.70;99636.59;4831403;29;20691;-86
2022/12/08 03:26:37;;;;;;;1.35;1.25;;;;;;;-10.39;78.45;99653.91;4832793;29;20117;-83
2022/12/08 03:29:05;;;;;;;1.42;1.33;;;;;;;-10.43;78.18;99652.41;4829518;29;20085;-82
2022/12/08 03:31:38;;;;;;;1.40;1.30;;;;;;;-10.41;78.49;99648.78;4827897;29;20590;-82
2022/12/08 03:34:05;;;;;;;1.45;1.35;;;;;;;-10.42;78.58;99644.50;4830806;29;20073;-82
2022/12/08 03:36:32;;;;;;;1.63;1.52;;;;;;;-10.40;78.59;99631.38;4839529;29;20052;-84
2022/12/08 03:39:00;;;;;;;1.50;1.40;;;;;;;-10.40;78.58;99623.53;4877912;29;20052;-82
2022/12/08 03:41:27;;;;;;;1.40;1.30;;;;;;;-10.41;78.88;99645.34;4878249;29;20053;-84
2022/12/08 03:43:58;;;;;;;1.15;1.15;;;;;;;-10.44;78.90;99619.44;4877757;29;20056;-84
2022/12/08 03:46:27;;;;;;;1.40;1.30;;;;;;;-10.34;79.17;99636.19;4878761;29;20170;-85
2022/12/08 03:48:53;;;;;;;1.40;1.30;;;;;;;-10.39;79.15;99623.41;4870987;29;20085;-85
2022/12/08 03:51:21;;;;;;;1.42;1.33;;;;;;;-10.36;79.03;99627.63;4846609;29;20049;-83
2022/12/08 03:53:49;;;;;;;1.13;1.13;;;;;;;-10.36;79.27;99630.22;4861228;29;20057;-82
2022/12/08 03:56:33;;;;;;;1.52;1.42;;;;;;;-10.35;79.65;99614.47;4877539;29;20049;-81
2022/12/08 03:59:01;;;;;;;1.30;1.20;;;;;;;-10.33;79.59;99627.41;4878642;29;20053;-82
2022/12/08 04:01:28;;;;;;;1.40;1.30;;;;;;;-10.33;79.57;99632.63;4877485;29;20091;-83
2022/12/08 04:03:55;;;;;;;1.27;1.20;;;;;;;-10.37;79.57;99613.72;4880118;29;20053;-83
2022/12/08 04:06:22;;;;;;;1.45;1.35;;;;;;;-10.35;79.52;99611.03;4868539;29;20573;-84
2022/12/08 04:08:50;;;;;;;1.38;1.27;;;;;;;-10.35;79.53;99614.47;4903769;29;20048;-85
2022/12/08 04:11:18;;;;;;;1.27;1.20;;;;;;;-10.41;79.19;99603.56;4883591;29;20105;-85
2022/12/08 04:13:45;;;;;;;1.35;1.25;;;;;;;-10.39;79.45;99602.53;4900791;29;20060;-85
2022/12/08 04:16:16;;;;;;;1.30;1.20;;;;;;;-10.31;79.73;99607.28;4883756;29;20056;-85
2022/12/08 04:18:44;;;;;;;1.10;1.10;;;;;;;-10.35;79.56;99611.03;4879447;29;20095;-86
2022/12/08 04:21:11;;;;;;;1.48;1.38;;;;;;;-10.33;79.82;99614.34;4874714;29;20060;-86
2022/12/08 04:23:38;;;;;;;1.40;1.30;;;;;;;-10.34;79.84;99615.31;4895611;29;20052;-85
2022/12/08 04:26:05;;;;;;;1.38;1.27;;;;;;;-10.38;79.99;99609.47;4885301;29;20052;-88
2022/12/08 04:28:33;;;;;;;1.40;1.30;;;;;;;-10.40;80.28;99616.53;4908103;29;20056;-88
2022/12/08 04:31:00;;;;;;;1.10;1.10;;;;;;;-10.40;80.57;99620.94;4879696;29;20573;-88
2022/12/08 04:33:27;;;;;;;1.60;1.50;;;;;;;-10.37;80.91;99612.91;4904755;29;20154;-88
2022/12/08 04:35:55;;;;;;;1.15;1.13;;;;;;;-10.38;81.06;99632.09;4561957;29;10000008;-88
2022/12/08 04:38:23;;;;;;;1.50;1.40;;;;;;;-10.37;81.11;99625.94;4911630;29;20084;-88
2022/12/08 04:40:52;;;;;;;1.48;1.38;;;;;;;-10.41;81.16;99614.84;4858482;29;20067;-90
2022/12/08 04:43:20;;;;;;;1.38;1.27;;;;;;;-10.40;81.09;99621.75;4895225;29;20150;-88
2022/12/08 04:45:47;;;;;;;1.45;1.35;;;;;;;-10.40;81.12;99616.53;4862762;29;20048;-89
2022/12/08 04:48:16;;;;;;;1.50;1.40;;;;;;;-10.40;80.97;99611.31;4881962;29;20056;-87
2022/12/08 04:50:44;;;;;;;1.60;1.50;;;;;;;-10.41;81.13;99614.00;4870446;29;20450;-90
2022/12/08 04:53:13;;;;;;;1.50;1.40;;;;;;;-10.44;81.27;99617.66;4875686;29;20155;-89
2022/12/08 04:55:50;;;;;;;1.50;1.40;;;;;;;-10.41;81.02;99608.78;4884946;29;20423;-86
2022/12/08 04:58:19;;;;;;;1.42;1.33;;;;;;;-10.41;81.24;99624.47;4870926;29;20594;-85
2022/12/08 05:00:47;;;;;;;1.30;1.20;;;;;;;-10.44;81.40;99604.59;4887750;29;20070;-91
2022/12/08 05:03:30;;;;;;;1.50;1.40;;;;;;;-10.43;81.22;99608.06;4893002;29;20048;-88
2022/12/08 05:05:59;;;;;;;1.50;1.40;;;;;;;-10.47;81.53;99607.41;4848782;29;20052;-92
2022/12/08 05:08:33;;;;;;;1.50;1.40;;;;;;;-10.47;81.21;99603.03;4871254;29;20065;-87
2022/12/08 05:11:05;;;;;;;1.40;1.30;;;;;;;-10.43;81.41;99621.09;4901045;29;20516;-89
2022/12/08 05:13:32;;;;;;;1.42;1.33;;;;;;;-10.43;81.14;99615.88;4883544;29;20048;-89
2022/12/08 05:16:08;;;;;;;1.50;1.40;;;;;;;-10.42;81.44;99609.75;4886744;29;20076;-89
2022/12/08 05:18:36;;;;;;;1.40;1.30;;;;;;;-10.43;81.58;99597.63;4874908;29;20152;-88
2022/12/08 05:21:04;;;;;;;1.60;1.50;;;;;;;-10.41;81.73;99600.97;4905222;29;20160;-87
2022/12/08 05:23:52;;;;;;;1.35;1.25;;;;;;;-10.40;81.81;99597.44;4888434;29;20069;-88
2022/12/08 05:26:39;;;;;;;1.40;1.30;;;;;;;-10.34;81.70;99594.44;4887789;29;20064;-89
2022/12/08 05:29:07;;;;;;;1.40;1.30;;;;;;;-10.37;81.73;99610.28;4870382;29;20052;-87
2022/12/08 05:31:34;;;;;;;1.40;1.30;;;;;;;-10.44;81.49;99594.16;4871550;29;20524;-88
2022/12/08 05:34:05;;;;;;;1.50;1.40;;;;;;;-10.51;81.53;99608.53;4903122;29;20049;-88
2022/12/08 05:36:32;;;;;;;1.40;1.30;;;;;;;-10.43;81.60;99595.00;4862915;29;20056;-86
2022/12/08 05:38:59;;;;;;;1.50;1.40;;;;;;;-10.44;81.53;99603.78;4911554;29;20532;-87
2022/12/08 05:41:26;;;;;;;1.50;1.40;;;;;;;-10.39;81.61;99614.75;4909057;29;20408;-89
2022/12/08 05:43:53;;;;;;;1.50;1.40;;;;;;;-10.42;81.41;99610.56;4899312;29;20053;-87
2022/12/08 05:46:27;;;;;;;;;;;;;;;-10.41;81.55;99595.75;4912189;29;20053;-87
2022/12/08 05:48:54;;;;;;;1.38;1.27;;;;;;;-10.40;81.62;99605.28;4903962;29;19933;-88
2022/12/08 05:51:22;;;;;;;1.45;1.35;;;;;;;-10.42;81.43;99607.13;4884680;29;20416;-88
2022/12/08 05:53:56;;;;;;;1.40;1.30;;;;;;;-10.44;81.33;99583.72;4904491;29;20093;-86
2022/12/08 05:56:24;;;;;;;1.50;1.40;;;;;;;-10.43;81.58;99631.53;4905213;29;20416;-87
2022/12/08 05:58:50;;;;;;;1.45;1.35;;;;;;;-10.43;81.73;99600.22;4905545;29;20461;-88
2022/12/08 06:01:29;;;;;;;1.60;1.50;;;;;;;-10.43;81.49;99621.09;4885167;29;20041;-87
2022/12/08 06:03:57;;;;;;;1.30;1.20;;;;;;;-10.44;81.43;99606.38;4900061;29;20071;-87
2022/12/08 06:06:30;;;;;;;1.30;1.20;;;;;;;-10.45;81.45;99616.00;4900077;29;20072;-87
2022/12/08 06:08:57;;;;;;;1.40;1.30;;;;;;;-10.42;81.50;99592.31;4899627;29;20076;-87
2022/12/08 06:11:29;;;;;;;1.42;1.33;;;;;;;-10.39;81.59;99599.09;4906509;29;20033;-85
2022/12/08 06:13:57;;;;;;;1.42;1.33;;;;;;;-10.39;81.44;99607.75;4904298;29;20073;-87
2022/12/08 06:16:25;;;;;;;1.40;1.30;;;;;;;-10.43;81.37;99585.44;4876383;29;20062;-86
2022/12/08 06:18:52;;;;;;;1.50;1.40;;;;;;;-10.43;81.80;99589.78;4908176;29;20044;-87
2022/12/08 06:21:20;;;;;;;1.15;1.15;;;;;;;-10.42;81.81;99574.03;4895527;29;20105;-87
2022/12/08 06:23:53;;;;;;;1.45;1.35;;;;;;;-10.41;81.58;99600.97;4905247;29;20057;-86
2022/12/08 06:26:46;;;;;;;1.50;1.40;;;;;;;-10.35;81.69;99598.00;4909690;29;20033;-87
2022/12/08 06:29:22;;;;;;;1.40;1.30;;;;;;;-10.32;81.33;99592.56;4902840;29;20151;-88
2022/12/08 06:31:51;;;;;;;1.40;1.30;;;;;;;-10.34;81.24;99579.59;4900891;29;20053;-87
2022/12/08 06:34:18;;;;;;;1.10;1.10;;;;;;;-10.26;81.38;99597.34;4903536;29;20080;-87
2022/12/08 06:36:45;;;;;;;1.50;1.40;;;;;;;-10.32;81.07;99587.34;4904483;29;20052;-88
2022/12/08 06:39:15;;;;;;;1.50;1.40;;;;;;;-10.34;81.04;99578.78;4863112;29;20090;-88
2022/12/08 06:44:40;;;;;;;1.50;1.40;;;;;;;-10.25;80.94;99588.59;4873010;29;20068;-88
2022/12/08 06:47:09;;;;;;;1.50;1.40;;;;;;;-10.26;80.69;99615.63;4876689;29;20048;-88
2022/12/08 06:49:36;;;;;;;1.40;1.30;;;;;;;-10.31;80.40;99582.00;4892374;29;20060;-88
2022/12/08 06:52:04;;;;;;;1.52;1.42;;;;;;;-10.25;80.63;99599.03;4896359;29;20072;-87
2022/12/08 06:54:56;;;;;;;1.50;1.40;;;;;;;-10.18;80.29;99607.31;4914991;29;20080;-88
2022/12/08 06:57:24;;;;;;;1.35;1.25;;;;;;;-10.14;80.31;99599.19;4913296;29;20049;-88
2022/12/08 06:59:52;;;;;;;1.60;1.50;;;;;;;-10.14;80.20;99601.78;4885450;29;20039;-87
2022/12/08 07:02:41;;;;;;;1.50;1.40;;;;;;;-10.09;79.84;99598.88;4861323;29;20139;-87
2022/12/08 07:05:36;;;;;;;1.33;1.23;;;;;;;-10.09;79.67;99618.00;4857067;29;20052;-88
2022/12/08 07:08:05;;;;;;;1.50;1.40;;;;;;;-10.08;79.48;99601.38;4888927;29;20053;-88
2022/12/08 07:10:33;;;;;;;1.45;1.35;;;;;;;-10.11;79.33;99585.91;4874104;29;20152;-88
2022/12/08 07:13:08;;;;;;;1.40;1.30;;;;;;;-10.07;79.35;99586.56;4906265;29;20583;-87
2022/12/08 07:15:35;;;;;;;1.50;1.40;;;;;;;-10.12;79.26;99589.47;4870433;29;20055;-87
2022/12/08 07:18:05;;;;;;;1.50;1.40;;;;;;;-10.07;79.07;99583.97;4890309;29;20056;-88
2022/12/08 07:20:32;;;;;;;1.40;1.30;;;;;;;-10.03;79.13;99591.47;4887610;29;20050;-89
2022/12/08 07:23:01;;;;;;;1.40;1.30;;;;;;;-9.99;79.17;99592.13;4889343;29;20401;-87
2022/12/08 07:25:28;;;;;;;1.50;1.40;;;;;;;-10.06;78.85;99583.03;4903429;29;20041;-88
2022/12/08 07:27:55;;;;;;;1.30;1.20;;;;;;;-9.98;78.62;99591.19;4909540;29;20217;-87
2022/12/08 07:30:23;;;;;;;1.48;1.38;;;;;;;-10.01;78.58;99611.44;4910785;29;20060;-87
2022/12/08 07:32:50;;;;;;;1.40;1.30;;;;;;;-9.95;78.64;99592.75;4912176;29;20048;-88
2022/12/08 07:35:17;;;;;;;1.30;1.20;;;;;;;-9.93;78.60;99596.94;4891301;29;20052;-87
2022/12/08 07:37:44;;;;;;;1.50;1.40;;;;;;;-9.83;78.30;99599.78;4906632;29;20165;-88
2022/12/08 07:40:11;;;;;;;1.40;1.30;;;;;;;-9.77;78.02;99581.13;4871281;29;20096;-88
2022/12/08 07:42:39;;;;;;;1.23;1.20;;;;;;;-9.75;77.48;99584.44;4869702;29;20071;-88
2022/12/08 07:45:08;;;;;;;1.48;1.38;;;;;;;-9.72;77.27;99570.34;4901824;29;20477;-88
2022/12/08 07:47:35;;;;;;;1.40;1.30;;;;;;;-9.72;77.13;99571.22;4885372;29;20100;-87
2022/12/08 07:50:03;;;;;;;1.33;1.23;;;;;;;-9.66;77.10;99573.41;4902210;29;20073;-88
2022/12/08 07:52:33;;;;;;;1.40;1.30;;;;;;;-9.68;77.03;99582.28;4885960;29;20055;-87
2022/12/08 07:55:00;;;;;;;1.40;1.30;;;;;;;-9.66;77.08;99569.97;4873425;29;20053;-87
2022/12/08 07:57:27;;;;;;;1.42;1.33;;;;;;;-9.61;77.29;99573.94;4908414;29;20028;-88
2022/12/08 07:59:55;;;;;;;1.40;1.30;;;;;;;-9.57;77.16;99576.34;4905963;29;20065;-88
2022/12/08 08:02:22;;;;;;;1.50;1.40;;;;;;;-9.53;77.16;99569.97;4892207;29;20587;-89
2022/12/08 08:04:52;;;;;;;1.40;1.30;;;;;;;-9.50;77.12;99567.16;4909947;29;20068;-88
2022/12/08 08:07:20;;;;;;;1.48;1.38;;;;;;;-9.47;76.89;99569.53;4900359;29;20049;-88
2022/12/08 08:09:49;;;;;;;1.40;1.30;;;;;;;-9.36;77.11;99537.47;4872029;29;20110;-87
2022/12/08 08:12:19;;;;;;;1.40;1.30;;;;;;;-9.41;76.47;99553.47;4874283;29;20061;-88
2022/12/08 08:15:30;;;;;;;1.30;1.20;;;;;;;-9.34;76.64;99554.72;4851006;29;20049;-87
2022/12/08 08:17:57;;;;;;;1.30;1.20;;;;;;;-9.31;76.54;99562.34;4870091;29;20057;-88
2022/12/08 08:20:24;;;;;;;1.42;1.33;;;;;;;-9.34;76.41;99567.78;4882421;29;20060;-88
2022/12/08 08:22:51;;;;;;;1.50;1.40;;;;;;;-9.32;76.82;99562.44;4882098;29;20148;-88
2022/12/08 08:25:23;;;;;;;1.50;1.40;;;;;;;-9.33;76.68;99556.38;4875640;29;20117;-88
2022/12/08 08:27:50;;;;;;;1.38;1.27;;;;;;;-9.36;76.31;99547.94;4896389;29;20143;-88
2022/12/08 08:30:17;;;;;;;1.10;1.10;;;;;;;-9.34;76.44;99554.72;4876383;29;20053;-88
2022/12/08 08:32:48;;;;;;;1.60;1.50;;;;;;;-9.25;76.52;99558.47;4885771;29;20053;-87
2022/12/08 08:35:15;;;;;;;1.45;1.35;;;;;;;-9.29;76.37;99546.53;4869409;29;20144;-88
2022/12/08 08:37:42;;;;;;;1.38;1.27;;;;;;;-9.31;76.53;99567.59;4881638;29;20053;-88
2022/12/08 08:40:17;;;;;;;1.33;1.23;;;;;;;-9.36;76.43;99535.69;4882941;29;20049;-88
2022/12/08 08:42:46;;;;;;;1.30;1.20;;;;;;;-9.38;76.50;99529.72;4825170;29;20057;-88
2022/12/08 08:45:15;;;;;;;1.40;1.30;;;;;;;-9.41;76.65;99529.94;4870779;29;20140;-88
2022/12/08 08:47:42;;;;;;;1.58;1.48;;;;;;;-9.28;76.89;99556.06;4859916;29;20083;-87
2022/12/08 08:50:20;;;;;;;1.40;1.30;;;;;;;-9.26;76.55;99555.03;4885750;29;20152;-88
2022/12/08 08:52:47;;;;;;;1.40;1.30;;;;;;;-9.17;76.51;99541.31;4871294;29;20049;-88
2022/12/08 08:55:14;;;;;;;1.35;1.25;;;;;;;-9.22;76.30;99573.94;4884974;29;20502;-88
2022/12/08 08:57:41;;;;;;;1.40;1.30;;;;;;;-9.27;76.72;99550.72;4883448;29;20077;-88
2022/12/08 09:00:09;;;;;;;1.40;1.30;;;;;;;-9.24;76.98;99563.63;4884372;29;20053;-89
2022/12/08 09:02:37;;;;;;;1.40;1.30;;;;;;;-9.22;77.25;99563.50;4885814;29;20541;-88
2022/12/08 09:05:09;;;;;;;1.42;1.33;;;;;;;-9.23;77.21;99567.06;4886265;29;20053;-87
2022/12/08 09:07:36;;;;;;;1.50;1.40;;;;;;;-9.22;77.62;99556.47;4885026;29;20489;-87
2022/12/08 09:10:04;;;;;;;1.50;1.40;;;;;;;-9.14;77.64;99560.34;4883773;29;20056;-87
2022/12/08 09:12:32;;;;;;;1.40;1.30;;;;;;;-9.15;77.29;99562.13;4864733;29;20075;-87
2022/12/08 09:15:00;;;;;;;1.35;1.25;;;;;;;-9.17;77.56;99582.31;4871379;29;20061;-89
2022/12/08 09:17:29;;;;;;;1.50;1.40;;;;;;;-9.21;77.83;99539.88;4851170;29;20156;-87
2022/12/08 09:19:56;;;;;;;1.33;1.23;;;;;;;-9.25;77.82;99568.94;4874809;29;20053;-89
2022/12/08 09:22:24;;;;;;;1.45;1.35;;;;;;;-9.23;78.23;99567.88;4891274;29;20160;-88
2022/12/08 09:24:52;;;;;;;1.40;1.30;;;;;;;-9.18;78.28;99544.03;4882249;29;20045;-89
2022/12/08 09:27:19;;;;;;;1.13;1.13;;;;;;;-9.15;78.28;99554.28;4886044;29;20082;-89
2022/12/08 09:29:46;;;;;;;1.40;1.30;;;;;;;-9.18;78.27;99560.56;4888410;29;20037;-89
2022/12/08 09:32:30;;;;;;;1.50;1.40;;;;;;;-9.23;78.34;99533.91;4858299;29;20564;-88
2022/12/08 09:34:58;;;;;;;1.42;1.33;;;;;;;-9.30;78.24;99535.25;4854452;29;20520;-91
2022/12/08 09:37:38;;;;;;;1.40;1.30;;;;;;;-9.21;78.65;99539.03;4889587;29;20050;-89
2022/12/08 09:40:07;;;;;;;1.40;1.30;;;;;;;-9.36;78.92;99527.84;4874020;29;20663;-88
2022/12/08 09:42:56;;;;;;;1.38;1.27;;;;;;;-9.32;78.97;99537.13;4843818;29;20041;-90
2022/12/08 09:45:54;;;;;;;1.40;1.30;;;;;;;-9.32;79.42;99537.13;4860610;29;20487;-93
2022/12/08 09:48:40;;;;;;;1.35;1.25;;;;;;;-9.38;79.77;99542.78;4842625;29;20041;-90
2022/12/08 09:51:07;;;;;;;1.50;1.40;;;;;;;-9.31;80.50;99546.66;4878041;29;20045;-90
2022/12/08 09:53:40;;;;;;;1.40;1.30;;;;;;;-9.36;80.70;99535.69;4877893;29;20262;-90
2022/12/08 09:56:12;;;;;;;1.30;1.20;;;;;;;-9.28;81.08;99548.22;4878653;29;20068;-90
2022/12/08 09:58:56;;;;;;;1.40;1.30;;;;;;;-9.33;81.47;99525.00;4883513;29;20061;-90
2022/12/08 10:01:27;;;;;;;1.40;1.30;;;;;;;-9.18;81.66;99552.72;4885195;29;20059;-92
2022/12/08 10:04:37;;;;;;;1.40;1.30;;;;;;;-9.13;81.70;99538.50;4886989;29;20045;-88
2022/12/08 10:07:22;;;;;;;1.40;1.30;;;;;;;-9.14;81.94;99534.19;4874647;29;20068;-92
2022/12/08 10:10:18;;;;;;;1.23;1.20;;;;;;;-9.17;82.14;99524.78;4886475;29;20803;-91
2022/12/08 10:13:01;;;;;;;1.42;1.33;;;;;;;-9.16;82.27;99527.31;4914964;29;20053;-91
2022/12/08 10:16:15;;;;;;;1.50;1.40;;;;;;;-9.11;82.38;99533.97;4869775;29;20078;-92
2022/12/08 10:19:22;;;;;;;1.48;1.38;;;;;;;-9.07;82.45;99540.69;4884675;29;20055;-92
2022/12/08 10:22:20;;;;;;;1.40;1.30;;;;;;;-9.08;82.55;99533.78;4849288;29;20049;-92
2022/12/08 10:25:17;;;;;;;1.50;1.40;;;;;;;-9.13;82.32;99523.63;4863943;29;20053;-88
2022/12/08 10:27:50;;;;;;;1.60;1.50;;;;;;;-9.15;82.06;99520.28;4854075;29;20053;-92
2022/12/08 10:30:22;;;;;;;1.30;1.20;;;;;;;-8.99;82.13;99543.59;4856494;29;20140;-87
2022/12/08 10:32:54;;;;;;;1.30;1.20;;;;;;;-9.03;81.83;99534.31;4533291;29;10000342;-88
2022/12/08 10:35:24;;;;;;;1.33;1.23;;;;;;;-9.02;82.25;99525.50;4847145;29;20057;-89
2022/12/08 10:38:05;;;;;;;1.40;1.30;;;;;;;-8.99;82.46;99522.66;4871837;29;20053;-91
2022/12/08 10:40:37;;;;;;;1.42;1.33;;;;;;;-9.10;82.37;99510.34;4864645;29;20072;-91
2022/12/08 10:43:20;;;;;;;1.50;1.40;;;;;;;-9.05;82.64;99512.66;4884130;29;20136;-92
2022/12/08 10:45:48;;;;;;;1.40;1.30;;;;;;;-9.10;82.65;99515.56;4841195;29;20061;-91
2022/12/08 10:51:47;;;;;;;1.50;1.40;;;;;;;-8.87;82.32;99540.13;4873401;29;20052;-92
2022/12/08 10:54:32;;;;;;;1.40;1.30;;;;;;;-8.83;82.26;99530.28;4795669;29;20140;-91
2022/12/08 10:57:01;;;;;;;1.40;1.30;;;;;;;-8.79;82.22;99526.50;4799754;29;20050;-91
2022/12/08 10:59:43;;;;;;;1.25;1.20;;;;;;;-8.76;81.79;99529.75;4803228;29;20112;-90
2022/12/08 11:02:24;;;;;;;1.13;1.13;;;;;;;-8.76;81.68;99523.66;4786209;29;20462;-91
2022/12/08 11:05:00;;;;;;;1.40;1.30;;;;;;;-8.66;81.73;99529.06;4799657;29;20138;-91
2022/12/08 11:07:46;;;;;;;1.40;1.30;;;;;;;-8.69;81.24;99493.50;4801552;29;20089;-89
2022/12/08 11:10:17;;;;;;;1.30;1.20;;;;;;;-8.62;80.90;99530.53;4784119;29;20123;-89
2022/12/08 11:13:01;;;;;;;1.17;1.17;;;;;;;-8.66;80.94;99516.81;4769287;29;20588;-89
2022/12/08 11:15:38;;;;;;;1.10;1.10;;;;;;;-8.70;81.00;99506.72;4798323;29;20120;-90
2022/12/08 11:18:17;;;;;;;1.45;1.35;;;;;;;-8.61;80.83;99533.03;4808835;29;20511;-89
2022/12/08 11:20:44;;;;;;;1.10;1.10;;;;;;;-8.64;80.85;99528.00;4800609;29;20055;-91
2022/12/08 11:23:21;;;;;;;1.40;1.30;;;;;;;-8.67;80.61;99516.94;4800750;29;20065;-90
2022/12/08 11:25:50;;;;;;;1.40;1.30;;;;;;;-8.67;80.92;99519.56;4832166;29;20086;-91
2022/12/08 11:28:22;;;;;;;1.00;1.00;;;;;;;-8.60;81.20;99531.28;4852956;29;20082;-90
2022/12/08 11:31:04;;;;;;;1.25;1.20;;;;;;;-8.67;81.12;99506.47;4822045;29;20060;-90
2022/12/08 11:33:35;;;;;;;1.05;1.05;;;;;;;-8.70;81.13;99517.16;4851484;29;20574;-88
2022/12/08 11:36:09;;;;;;;1.17;1.17;;;;;;;-8.61;81.15;99526.97;4865234;29;20087;-88
2022/12/08 11:38:40;;;;;;;1.30;1.20;;;;;;;-8.61;81.33;99526.97;4847172;29;20081;-88
2022/12/08 11:41:10;;;;;;;1.10;1.10;;;;;;;-8.57;81.50;99529.25;4864865;29;20087;-89
2022/12/08 11:43:53;;;;;;;;;;;;;;;-8.59;81.61;99527.69;4850610;29;20102;-89
2022/12/08 11:46:25;;;;;;;1.10;1.10;;;;;;;-8.67;81.35;99516.94;4849195;29;19928;-89
2022/12/08 11:49:19;;;;;;;1.17;1.17;;;;;;;-8.72;81.10;99509.41;4850295;29;20084;-90
2022/12/08 11:52:10;;;;;;;1.50;1.40;;;;;;;-8.59;81.53;99518.06;4813906;29;20082;-88
2022/12/08 11:54:47;;;;;;;1.30;1.20;;;;;;;-8.56;81.52;99507.38;4810699;29;20054;-88
2022/12/08 11:57:19;;;;;;;0.90;0.90;;;;;;;-8.56;81.28;99533.56;4801922;29;20045;-87
2022/12/08 11:59:53;;;;;;;1.30;1.20;;;;;;;-8.73;81.63;99503.34;4820150;29;20065;-89
2022/12/08 12:02:26;;;;;;;1.00;1.00;;;;;;;-8.63;81.75;99528.84;4836576;29;20049;-88
2022/12/08 12:05:23;;;;;;;1.20;1.20;;;;;;;-8.69;81.91;99517.03;4827403;29;20521;-89